Nipawin, Canada
Current Conditions -  °F | °C
As of 6:07 PM on Saturday 20 Dec 2014 (Local Time) from CYBU Reporting Station
Overcast Overcast  
Wind Chill: 14°   Ceiling: 900
Heat Index: 21°   Visibility: 9mi
Dew Point: 19°   Wind: 6mph
Humidity: 93%   Direction: 70°ENE
Pressure: 29.72"   Gusts: NA
Location:  53.37°N, 104.02°W
Report Text: CYBU 210007Z AUTO 07005KT 9SM OVC009 M06/M07 A2972 RMK SLP092
Loading
Personal Weather Stations






























Interactive Weather Map New forecast layout! Learn more

10-Day Weather Forecast

Advertisements
Track Severe Weather on mobile